sensor_id;sensor_type;location;lat;lon;timestamp;temperature;humidity
42615;DHT22;28754;47.700;7.924;2023-07-28T00:00:00;17.10;99.90
42615;DHT22;28754;47.700;7.924;2023-07-28T00:02:47;17.10;99.90
42615;DHT22;28754;47.700;7.924;2023-07-28T00:05:34;17.10;99.90
42615;DHT22;28754;47.700;7.924;2023-07-28T00:08:23;17.10;99.90
42615;DHT22;28754;47.700;7.924;2023-07-28T00:11:15;17.00;99.90
42615;DHT22;28754;47.700;7.924;2023-07-28T00:14:03;16.90;99.90
42615;DHT22;28754;47.700;7.924;2023-07-28T00:16:53;17.00;99.90
42615;DHT22;28754;47.700;7.924;2023-07-28T00:19:40;17.00;99.90
42615;DHT22;28754;47.700;7.924;2023-07-28T00:22:28;17.00;99.90
42615;DHT22;28754;47.700;7.924;2023-07-28T00:25:21;16.90;99.90
42615;DHT22;28754;47.700;7.924;2023-07-28T00:28:08;16.80;99.90
42615;DHT22;28754;47.700;7.924;2023-07-28T00:30:56;16.80;99.90
42615;DHT22;28754;47.700;7.924;2023-07-28T00:33:43;16.90;99.90
42615;DHT22;28754;47.700;7.924;2023-07-28T00:36:30;17.00;99.90
42615;DHT22;28754;47.700;7.924;2023-07-28T00:39:50;17.10;99.90
42615;DHT22;28754;47.700;7.924;2023-07-28T01:08:34;17.20;99.90
42615;DHT22;28754;47.700;7.924;2023-07-28T01:11:26;17.20;99.90
42615;DHT22;28754;47.700;7.924;2023-07-28T01:14:13;17.20;99.90
42615;DHT22;28754;47.700;7.924;2023-07-28T01:17:00;17.10;99.90
42615;DHT22;28754;47.700;7.924;2023-07-28T01:19:46;17.10;99.90
42615;DHT22;28754;47.700;7.924;2023-07-28T01:26:06;17.00;99.90
42615;DHT22;28754;47.700;7.924;2023-07-28T01:28:56;17.00;99.90
42615;DHT22;28754;47.700;7.924;2023-07-28T01:31:46;16.90;99.90
42615;DHT22;28754;47.700;7.924;2023-07-28T01:34:34;17.00;99.90
42615;DHT22;28754;47.700;7.924;2023-07-28T01:37:24;17.00;99.90
42615;DHT22;28754;47.700;7.924;2023-07-28T01:40:18;17.10;99.90
42615;DHT22;28754;47.700;7.924;2023-07-28T01:43:07;17.10;99.90
42615;DHT22;28754;47.700;7.924;2023-07-28T01:45:56;17.20;99.90
42615;DHT22;28754;47.700;7.924;2023-07-28T01:48:42;17.10;99.90
42615;DHT22;28754;47.700;7.924;2023-07-28T01:51:29;17.10;99.90
42615;DHT22;28754;47.700;7.924;2023-07-28T01:54:16;17.10;99.90
42615;DHT22;28754;47.700;7.924;2023-07-28T01:57:03;17.10;99.90
42615;DHT22;28754;47.700;7.924;2023-07-28T01:59:54;17.10;99.90
42615;DHT22;28754;47.700;7.924;2023-07-28T02:08:06;17.40;99.90
42615;DHT22;28754;47.700;7.924;2023-07-28T02:10:54;17.50;99.90
42615;DHT22;28754;47.700;7.924;2023-07-28T02:13:42;17.50;99.90
42615;DHT22;28754;47.700;7.924;2023-07-28T02:16:42;17.50;99.90
42615;DHT22;28754;47.700;7.924;2023-07-28T02:19:29;17.50;99.90
42615;DHT22;28754;47.700;7.924;2023-07-28T02:22:24;17.50;99.90
42615;DHT22;28754;47.700;7.924;2023-07-28T02:25:38;17.60;99.90
42615;DHT22;28754;47.700;7.924;2023-07-28T02:29:46;17.50;99.90
42615;DHT22;28754;47.700;7.924;2023-07-28T02:33:01;17.60;99.90
42615;DHT22;28754;47.700;7.924;2023-07-28T02:35:55;17.50;99.90
42615;DHT22;28754;47.700;7.924;2023-07-28T02:38:43;17.40;99.90
42615;DHT22;28754;47.700;7.924;2023-07-28T02:41:29;17.40;99.90
42615;DHT22;28754;47.700;7.924;2023-07-28T02:44:16;17.40;99.90
42615;DHT22;28754;47.700;7.924;2023-07-28T02:47:03;17.40;99.90
42615;DHT22;28754;47.700;7.924;2023-07-28T02:49:50;17.40;99.90
42615;DHT22;28754;47.700;7.924;2023-07-28T02:52:40;17.30;99.90
42615;DHT22;28754;47.700;7.924;2023-07-28T02:55:32;17.40;99.90
42615;DHT22;28754;47.700;7.924;2023-07-28T02:58:21;17.40;99.90
42615;DHT22;28754;47.700;7.924;2023-07-28T03:01:08;17.40;99.90
42615;DHT22;28754;47.700;7.924;2023-07-28T03:03:57;17.40;99.90
42615;DHT22;28754;47.700;7.924;2023-07-28T03:06:44;17.30;99.90
42615;DHT22;28754;47.700;7.924;2023-07-28T03:09:31;17.30;99.90
42615;DHT22;28754;47.700;7.924;2023-07-28T03:12:21;17.20;99.90
42615;DHT22;28754;47.700;7.924;2023-07-28T03:15:08;17.10;99.90
42615;DHT22;28754;47.700;7.924;2023-07-28T03:17:55;17.00;99.90
42615;DHT22;28754;47.700;7.924;2023-07-28T03:20:42;17.10;99.90
42615;DHT22;28754;47.700;7.924;2023-07-28T03:23:29;17.10;99.90
42615;DHT22;28754;47.700;7.924;2023-07-28T03:26:16;17.10;99.90
42615;DHT22;28754;47.700;7.924;2023-07-28T03:29:03;17.00;99.90
42615;DHT22;28754;47.700;7.924;2023-07-28T03:31:50;17.00;99.90
42615;DHT22;28754;47.700;7.924;2023-07-28T03:34:38;17.10;99.90
42615;DHT22;28754;47.700;7.924;2023-07-28T03:37:28;16.90;99.90
42615;DHT22;28754;47.700;7.924;2023-07-28T03:40:15;17.00;99.90
42615;DHT22;28754;47.700;7.924;2023-07-28T03:43:08;17.00;99.90
42615;DHT22;28754;47.700;7.924;2023-07-28T03:45:55;16.80;99.90
42615;DHT22;28754;47.700;7.924;2023-07-28T03:48:42;16.90;99.90
42615;DHT22;28754;47.700;7.924;2023-07-28T03:51:29;16.80;99.90
42615;DHT22;28754;47.700;7.924;2023-07-28T03:54:16;16.80;99.90
42615;DHT22;28754;47.700;7.924;2023-07-28T03:57:03;16.80;99.90
42615;DHT22;28754;47.700;7.924;2023-07-28T03:59:51;16.80;99.90
42615;DHT22;28754;47.700;7.924;2023-07-28T04:03:09;16.80;99.90
42615;DHT22;28754;47.700;7.924;2023-07-28T04:05:56;16.80;99.90
42615;DHT22;28754;47.700;7.924;2023-07-28T04:08:43;16.80;99.90
42615;DHT22;28754;47.700;7.924;2023-07-28T04:11:29;16.80;99.90
42615;DHT22;28754;47.700;7.924;2023-07-28T04:14:16;16.70;99.90
42615;DHT22;28754;47.700;7.924;2023-07-28T04:17:03;16.60;99.90
42615;DHT22;28754;47.700;7.924;2023-07-28T04:19:50;16.60;99.90
42615;DHT22;28754;47.700;7.924;2023-07-28T04:22:37;16.70;99.90
42615;DHT22;28754;47.700;7.924;2023-07-28T04:25:23;16.60;99.90
42615;DHT22;28754;47.700;7.924;2023-07-28T04:28:10;16.70;99.90
42615;DHT22;28754;47.700;7.924;2023-07-28T04:30:57;16.80;99.90
42615;DHT22;28754;47.700;7.924;2023-07-28T04:34:04;16.90;99.90
42615;DHT22;28754;47.700;7.924;2023-07-28T04:37:10;17.00;99.90
42615;DHT22;28754;47.700;7.924;2023-07-28T04:40:19;17.00;99.90
42615;DHT22;28754;47.700;7.924;2023-07-28T04:43:06;17.20;99.90
42615;DHT22;28754;47.700;7.924;2023-07-28T04:45:52;17.30;99.90
42615;DHT22;28754;47.700;7.924;2023-07-28T04:48:42;17.50;99.90
42615;DHT22;28754;47.700;7.924;2023-07-28T04:51:48;17.50;99.90
42615;DHT22;28754;47.700;7.924;2023-07-28T04:55:05;17.60;99.90
42615;DHT22;28754;47.700;7.924;2023-07-28T04:57:52;17.60;99.90
42615;DHT22;28754;47.700;7.924;2023-07-28T05:00:41;17.60;99.90
42615;DHT22;28754;47.700;7.924;2023-07-28T05:03:28;17.60;99.90
42615;DHT22;28754;47.700;7.924;2023-07-28T05:06:18;17.60;99.90
42615;DHT22;28754;47.700;7.924;2023-07-28T05:09:05;17.60;99.90
42615;DHT22;28754;47.700;7.924;2023-07-28T05:11:54;17.60;99.90
42615;DHT22;28754;47.700;7.924;2023-07-28T05:14:42;17.60;99.90
42615;DHT22;28754;47.700;7.924;2023-07-28T05:17:29;17.70;99.90
42615;DHT22;28754;47.700;7.924;2023-07-28T05:20:41;17.70;99.90
42615;DHT22;28754;47.700;7.924;2023-07-28T05:23:31;17.70;99.90
42615;DHT22;28754;47.700;7.924;2023-07-28T05:26:18;17.70;99.90
42615;DHT22;28754;47.700;7.924;2023-07-28T05:29:05;17.70;99.90
42615;DHT22;28754;47.700;7.924;2023-07-28T05:31:52;17.70;99.90
42615;DHT22;28754;47.700;7.924;2023-07-28T05:34:49;17.70;99.90
42615;DHT22;28754;47.700;7.924;2023-07-28T05:37:38;17.90;99.90
42615;DHT22;28754;47.700;7.924;2023-07-28T05:40:25;18.00;99.90
42615;DHT22;28754;47.700;7.924;2023-07-28T05:43:12;18.20;99.90
42615;DHT22;28754;47.700;7.924;2023-07-28T05:46:00;18.40;99.90
42615;DHT22;28754;47.700;7.924;2023-07-28T05:48:50;18.50;99.90
42615;DHT22;28754;47.700;7.924;2023-07-28T05:51:37;18.50;99.90
42615;DHT22;28754;47.700;7.924;2023-07-28T05:54:24;18.50;99.90
42615;DHT22;28754;47.700;7.924;2023-07-28T05:57:11;18.50;99.90
42615;DHT22;28754;47.700;7.924;2023-07-28T05:59:58;18.50;99.90
42615;DHT22;28754;47.700;7.924;2023-07-28T06:02:45;18.70;99.90
42615;DHT22;28754;47.700;7.924;2023-07-28T06:05:44;18.80;99.90
42615;DHT22;28754;47.700;7.924;2023-07-28T06:08:35;19.10;99.90
42615;DHT22;28754;47.700;7.924;2023-07-28T06:11:22;19.20;99.90
42615;DHT22;28754;47.700;7.924;2023-07-28T06:14:08;19.40;99.90
42615;DHT22;28754;47.700;7.924;2023-07-28T06:16:57;19.50;99.90
42615;DHT22;28754;47.700;7.924;2023-07-28T06:19:52;19.50;99.90
42615;DHT22;28754;47.700;7.924;2023-07-28T06:22:39;19.20;99.90
42615;DHT22;28754;47.700;7.924;2023-07-28T06:25:26;19.10;99.90
42615;DHT22;28754;47.700;7.924;2023-07-28T06:28:14;19.10;99.90
42615;DHT22;28754;47.700;7.924;2023-07-28T06:31:01;18.70;99.90
42615;DHT22;28754;47.700;7.924;2023-07-28T06:33:48;18.90;99.90
42615;DHT22;28754;47.700;7.924;2023-07-28T06:36:35;18.80;99.90
42615;DHT22;28754;47.700;7.924;2023-07-28T06:39:22;18.40;99.90
42615;DHT22;28754;47.700;7.924;2023-07-28T06:42:09;18.50;99.90
42615;DHT22;28754;47.700;7.924;2023-07-28T06:44:58;18.60;99.90
42615;DHT22;28754;47.700;7.924;2023-07-28T06:47:45;18.40;99.90
42615;DHT22;28754;47.700;7.924;2023-07-28T06:50:32;18.40;99.90
42615;DHT22;28754;47.700;7.924;2023-07-28T06:53:19;18.30;99.90
42615;DHT22;28754;47.700;7.924;2023-07-28T06:56:06;18.50;99.90
42615;DHT22;28754;47.700;7.924;2023-07-28T06:58:53;18.60;99.90
42615;DHT22;28754;47.700;7.924;2023-07-28T07:01:40;18.50;99.90
42615;DHT22;28754;47.700;7.924;2023-07-28T07:04:27;18.60;99.90
42615;DHT22;28754;47.700;7.924;2023-07-28T07:07:13;19.00;99.90
42615;DHT22;28754;47.700;7.924;2023-07-28T07:10:00;19.50;99.90
42615;DHT22;28754;47.700;7.924;2023-07-28T07:12:47;19.60;99.90
42615;DHT22;28754;47.700;7.924;2023-07-28T07:15:34;19.50;99.90
42615;DHT22;28754;47.700;7.924;2023-07-28T07:18:21;19.50;99.90
42615;DHT22;28754;47.700;7.924;2023-07-28T07:21:08;19.00;99.90
42615;DHT22;28754;47.700;7.924;2023-07-28T07:23:56;18.60;99.90
42615;DHT22;28754;47.700;7.924;2023-07-28T07:26:46;18.60;99.90
42615;DHT22;28754;47.700;7.924;2023-07-28T07:29:33;18.50;99.90
42615;DHT22;28754;47.700;7.924;2023-07-28T07:32:19;18.40;99.90
42615;DHT22;28754;47.700;7.924;2023-07-28T07:35:06;18.50;99.90
42615;DHT22;28754;47.700;7.924;2023-07-28T07:37:54;18.60;99.90
42615;DHT22;28754;47.700;7.924;2023-07-28T07:40:41;18.70;99.90
42615;DHT22;28754;47.700;7.924;2023-07-28T07:43:28;18.60;99.90
42615;DHT22;28754;47.700;7.924;2023-07-28T07:46:16;18.70;99.90
42615;DHT22;28754;47.700;7.924;2023-07-28T07:49:03;19.00;99.90
42615;DHT22;28754;47.700;7.924;2023-07-28T07:51:51;19.30;99.90
42615;DHT22;28754;47.700;7.924;2023-07-28T07:54:38;19.60;99.90
42615;DHT22;28754;47.700;7.924;2023-07-28T07:57:25;19.70;99.90
42615;DHT22;28754;47.700;7.924;2023-07-28T08:00:12;19.70;99.90
42615;DHT22;28754;47.700;7.924;2023-07-28T08:02:59;19.90;99.90
42615;DHT22;28754;47.700;7.924;2023-07-28T08:05:46;20.20;99.90
42615;DHT22;28754;47.700;7.924;2023-07-28T08:08:33;20.10;99.90
42615;DHT22;28754;47.700;7.924;2023-07-28T08:11:20;20.20;99.90
42615;DHT22;28754;47.700;7.924;2023-07-28T08:14:07;20.40;99.90
42615;DHT22;28754;47.700;7.924;2023-07-28T08:16:53;20.40;99.90
42615;DHT22;28754;47.700;7.924;2023-07-28T08:19:40;20.30;99.90
42615;DHT22;28754;47.700;7.924;2023-07-28T08:22:27;20.00;99.90
42615;DHT22;28754;47.700;7.924;2023-07-28T08:25:13;20.70;99.90
42615;DHT22;28754;47.700;7.924;2023-07-28T08:28:00;20.40;99.90
42615;DHT22;28754;47.700;7.924;2023-07-28T08:30:56;20.40;99.90
42615;DHT22;28754;47.700;7.924;2023-07-28T08:33:44;20.40;99.90
42615;DHT22;28754;47.700;7.924;2023-07-28T08:36:30;20.60;99.90
42615;DHT22;28754;47.700;7.924;2023-07-28T08:39:18;20.70;99.90
42615;DHT22;28754;47.700;7.924;2023-07-28T08:42:05;20.80;99.90
42615;DHT22;28754;47.700;7.924;2023-07-28T08:44:52;20.80;99.90
42615;DHT22;28754;47.700;7.924;2023-07-28T08:47:38;20.60;99.90
42615;DHT22;28754;47.700;7.924;2023-07-28T08:50:25;20.40;99.90
42615;DHT22;28754;47.700;7.924;2023-07-28T08:53:12;20.40;99.90
42615;DHT22;28754;47.700;7.924;2023-07-28T08:55:59;20.50;99.90
42615;DHT22;28754;47.700;7.924;2023-07-28T08:58:46;20.70;99.90
42615;DHT22;28754;47.700;7.924;2023-07-28T09:01:32;20.60;99.90
42615;DHT22;28754;47.700;7.924;2023-07-28T09:04:21;20.60;99.90
42615;DHT22;28754;47.700;7.924;2023-07-28T09:07:08;21.40;99.90
42615;DHT22;28754;47.700;7.924;2023-07-28T09:10:02;21.90;99.90
42615;DHT22;28754;47.700;7.924;2023-07-28T09:12:50;22.10;99.90
42615;DHT22;28754;47.700;7.924;2023-07-28T09:15:37;21.80;99.90
42615;DHT22;28754;47.700;7.924;2023-07-28T09:18:25;21.90;99.90
42615;DHT22;28754;47.700;7.924;2023-07-28T09:21:20;22.00;99.90
42615;DHT22;28754;47.700;7.924;2023-07-28T09:24:09;22.20;99.90
42615;DHT22;28754;47.700;7.924;2023-07-28T09:27:01;22.20;99.90
42615;DHT22;28754;47.700;7.924;2023-07-28T09:29:49;22.30;99.90
42615;DHT22;28754;47.700;7.924;2023-07-28T09:32:48;22.50;99.90
42615;DHT22;28754;47.700;7.924;2023-07-28T09:35:50;21.90;99.90
42615;DHT22;28754;47.700;7.924;2023-07-28T09:38:40;22.50;99.90
42615;DHT22;28754;47.700;7.924;2023-07-28T09:41:29;22.80;99.90
42615;DHT22;28754;47.700;7.924;2023-07-28T09:44:17;22.90;99.90
42615;DHT22;28754;47.700;7.924;2023-07-28T09:47:04;23.00;99.90
42615;DHT22;28754;47.700;7.924;2023-07-28T09:49:55;23.10;99.90
42615;DHT22;28754;47.700;7.924;2023-07-28T09:52:46;22.90;99.90
42615;DHT22;28754;47.700;7.924;2023-07-28T09:55:38;22.50;99.90
42615;DHT22;28754;47.700;7.924;2023-07-28T09:58:30;22.70;99.90
42615;DHT22;28754;47.700;7.924;2023-07-28T10:01:21;22.40;99.90
42615;DHT22;28754;47.700;7.924;2023-07-28T10:04:10;22.40;99.90
42615;DHT22;28754;47.700;7.924;2023-07-28T10:06:57;22.70;99.90
42615;DHT22;28754;47.700;7.924;2023-07-28T10:09:45;22.50;99.90
42615;DHT22;28754;47.700;7.924;2023-07-28T10:12:40;22.50;99.90
42615;DHT22;28754;47.700;7.924;2023-07-28T10:15:34;23.30;99.90
42615;DHT22;28754;47.700;7.924;2023-07-28T10:18:21;23.60;99.90
42615;DHT22;28754;47.700;7.924;2023-07-28T10:21:10;23.70;99.90
42615;DHT22;28754;47.700;7.924;2023-07-28T10:24:04;23.60;99.90
42615;DHT22;28754;47.700;7.924;2023-07-28T10:26:57;23.70;99.90
42615;DHT22;28754;47.700;7.924;2023-07-28T10:29:56;23.00;99.90
42615;DHT22;28754;47.700;7.924;2023-07-28T10:32:47;23.30;99.90
42615;DHT22;28754;47.700;7.924;2023-07-28T10:35:47;22.70;99.90
42615;DHT22;28754;47.700;7.924;2023-07-28T10:38:34;22.00;99.90
42615;DHT22;28754;47.700;7.924;2023-07-28T10:41:22;22.40;99.90
42615;DHT22;28754;47.700;7.924;2023-07-28T10:44:09;22.10;99.90
42615;DHT22;28754;47.700;7.924;2023-07-28T10:46:56;22.50;99.90
42615;DHT22;28754;47.700;7.924;2023-07-28T10:49:47;22.00;99.90
42615;DHT22;28754;47.700;7.924;2023-07-28T10:52:33;21.70;99.90
42615;DHT22;28754;47.700;7.924;2023-07-28T10:55:22;21.20;99.90
42615;DHT22;28754;47.700;7.924;2023-07-28T10:58:11;21.00;99.90
42615;DHT22;28754;47.700;7.924;2023-07-28T11:00:58;21.10;99.90
42615;DHT22;28754;47.700;7.924;2023-07-28T11:03:45;21.30;99.90
42615;DHT22;28754;47.700;7.924;2023-07-28T11:06:32;21.70;99.90
42615;DHT22;28754;47.700;7.924;2023-07-28T11:09:22;21.90;99.90
42615;DHT22;28754;47.700;7.924;2023-07-28T11:12:14;21.90;99.90
42615;DHT22;28754;47.700;7.924;2023-07-28T11:15:01;22.00;99.90
42615;DHT22;28754;47.700;7.924;2023-07-28T11:17:49;21.90;99.90
42615;DHT22;28754;47.700;7.924;2023-07-28T11:20:37;22.00;99.90
42615;DHT22;28754;47.700;7.924;2023-07-28T11:23:24;22.10;99.90
42615;DHT22;28754;47.700;7.924;2023-07-28T11:26:11;22.10;99.90
42615;DHT22;28754;47.700;7.924;2023-07-28T11:28:59;22.30;99.90
42615;DHT22;28754;47.700;7.924;2023-07-28T11:31:47;22.30;99.90
42615;DHT22;28754;47.700;7.924;2023-07-28T11:34:35;22.50;99.90
42615;DHT22;28754;47.700;7.924;2023-07-28T11:37:22;22.70;99.90
42615;DHT22;28754;47.700;7.924;2023-07-28T11:40:10;22.70;99.90
42615;DHT22;28754;47.700;7.924;2023-07-28T11:42:58;22.70;99.90
42615;DHT22;28754;47.700;7.924;2023-07-28T11:45:44;22.60;99.90
42615;DHT22;28754;47.700;7.924;2023-07-28T11:48:32;22.50;99.90
42615;DHT22;28754;47.700;7.924;2023-07-28T11:51:18;22.50;99.90
42615;DHT22;28754;47.700;7.924;2023-07-28T11:54:06;22.40;99.90
42615;DHT22;28754;47.700;7.924;2023-07-28T11:56:55;22.70;99.90
42615;DHT22;28754;47.700;7.924;2023-07-28T11:59:43;22.30;99.90
42615;DHT22;28754;47.700;7.924;2023-07-28T12:02:31;22.30;99.90
42615;DHT22;28754;47.700;7.924;2023-07-28T12:05:19;22.20;99.90
42615;DHT22;28754;47.700;7.924;2023-07-28T12:08:06;22.20;99.90
42615;DHT22;28754;47.700;7.924;2023-07-28T12:10:54;22.00;99.90
42615;DHT22;28754;47.700;7.924;2023-07-28T12:13:48;21.80;99.90
42615;DHT22;28754;47.700;7.924;2023-07-28T12:16:41;21.50;99.90
42615;DHT22;28754;47.700;7.924;2023-07-28T12:22:47;21.10;99.90
42615;DHT22;28754;47.700;7.924;2023-07-28T12:25:35;21.10;99.90
42615;DHT22;28754;47.700;7.924;2023-07-28T12:28:23;21.10;99.90
42615;DHT22;28754;47.700;7.924;2023-07-28T12:31:09;21.20;99.90
42615;DHT22;28754;47.700;7.924;2023-07-28T12:33:56;21.60;99.90
42615;DHT22;28754;47.700;7.924;2023-07-28T12:36:43;21.90;99.90
42615;DHT22;28754;47.700;7.924;2023-07-28T12:39:31;21.90;99.90
42615;DHT22;28754;47.700;7.924;2023-07-28T12:42:17;21.90;99.90
42615;DHT22;28754;47.700;7.924;2023-07-28T12:45:05;21.90;99.90
42615;DHT22;28754;47.700;7.924;2023-07-28T12:47:53;22.50;99.90
42615;DHT22;28754;47.700;7.924;2023-07-28T12:50:40;22.40;99.90
42615;DHT22;28754;47.700;7.924;2023-07-28T12:53:26;22.30;99.90
42615;DHT22;28754;47.700;7.924;2023-07-28T12:56:13;21.80;99.90
42615;DHT22;28754;47.700;7.924;2023-07-28T12:59:00;21.70;99.90
42615;DHT22;28754;47.700;7.924;2023-07-28T13:01:46;22.80;99.90
42615;DHT22;28754;47.700;7.924;2023-07-28T13:04:33;22.70;99.90
42615;DHT22;28754;47.700;7.924;2023-07-28T13:07:20;23.00;99.90
42615;DHT22;28754;47.700;7.924;2023-07-28T13:10:09;22.70;99.90
42615;DHT22;28754;47.700;7.924;2023-07-28T13:12:57;22.80;99.90
42615;DHT22;28754;47.700;7.924;2023-07-28T13:15:43;22.70;99.90
42615;DHT22;28754;47.700;7.924;2023-07-28T13:18:30;23.50;99.90
42615;DHT22;28754;47.700;7.924;2023-07-28T13:21:17;23.70;99.90
42615;DHT22;28754;47.700;7.924;2023-07-28T13:24:04;23.20;99.90
42615;DHT22;28754;47.700;7.924;2023-07-28T13:26:51;22.80;99.90
42615;DHT22;28754;47.700;7.924;2023-07-28T13:29:38;22.50;99.90
42615;DHT22;28754;47.700;7.924;2023-07-28T13:32:25;22.50;99.90
42615;DHT22;28754;47.700;7.924;2023-07-28T13:35:12;22.60;99.90
42615;DHT22;28754;47.700;7.924;2023-07-28T13:37:58;22.60;99.90
42615;DHT22;28754;47.700;7.924;2023-07-28T13:40:45;22.20;99.90
42615;DHT22;28754;47.700;7.924;2023-07-28T13:43:33;22.40;99.90
42615;DHT22;28754;47.700;7.924;2023-07-28T13:46:23;22.40;99.90
42615;DHT22;28754;47.700;7.924;2023-07-28T13:49:10;22.40;99.90
42615;DHT22;28754;47.700;7.924;2023-07-28T13:51:57;22.20;99.90
42615;DHT22;28754;47.700;7.924;2023-07-28T13:54:43;22.10;99.90
42615;DHT22;28754;47.700;7.924;2023-07-28T13:57:34;21.90;99.90
42615;DHT22;28754;47.700;7.924;2023-07-28T14:00:21;21.80;99.90
42615;DHT22;28754;47.700;7.924;2023-07-28T14:03:07;22.00;99.90
42615;DHT22;28754;47.700;7.924;2023-07-28T14:05:54;22.30;99.90
42615;DHT22;28754;47.700;7.924;2023-07-28T14:08:41;22.00;99.90
42615;DHT22;28754;47.700;7.924;2023-07-28T14:11:27;21.80;99.90
42615;DHT22;28754;47.700;7.924;2023-07-28T14:14:14;21.90;99.90
42615;DHT22;28754;47.700;7.924;2023-07-28T14:17:01;21.90;99.90
42615;DHT22;28754;47.700;7.924;2023-07-28T14:19:47;21.80;99.90
42615;DHT22;28754;47.700;7.924;2023-07-28T14:22:34;21.80;99.90
42615;DHT22;28754;47.700;7.924;2023-07-28T14:25:21;21.60;99.90
42615;DHT22;28754;47.700;7.924;2023-07-28T14:28:08;21.20;99.90
42615;DHT22;28754;47.700;7.924;2023-07-28T14:30:54;21.30;99.90
42615;DHT22;28754;47.700;7.924;2023-07-28T14:33:41;21.00;99.90
42615;DHT22;28754;47.700;7.924;2023-07-28T14:36:28;20.60;99.90
42615;DHT22;28754;47.700;7.924;2023-07-28T14:39:14;20.30;99.90
42615;DHT22;28754;47.700;7.924;2023-07-28T14:42:01;20.00;99.90
42615;DHT22;28754;47.700;7.924;2023-07-28T14:44:47;19.80;99.90
42615;DHT22;28754;47.700;7.924;2023-07-28T14:47:34;19.70;99.90
42615;DHT22;28754;47.700;7.924;2023-07-28T14:50:21;19.80;99.90
42615;DHT22;28754;47.700;7.924;2023-07-28T14:53:34;19.80;99.90
42615;DHT22;28754;47.700;7.924;2023-07-28T14:56:22;19.50;99.90
42615;DHT22;28754;47.700;7.924;2023-07-28T14:59:11;19.30;99.90
42615;DHT22;28754;47.700;7.924;2023-07-28T15:01:58;19.60;99.90
42615;DHT22;28754;47.700;7.924;2023-07-28T15:04:44;19.80;99.90
42615;DHT22;28754;47.700;7.924;2023-07-28T15:07:33;19.90;99.90
42615;DHT22;28754;47.700;7.924;2023-07-28T15:10:21;20.00;99.90
42615;DHT22;28754;47.700;7.924;2023-07-28T15:13:08;19.90;99.90
42615;DHT22;28754;47.700;7.924;2023-07-28T15:16:03;20.00;99.90
42615;DHT22;28754;47.700;7.924;2023-07-28T15:19:09;19.80;99.90
42615;DHT22;28754;47.700;7.924;2023-07-28T15:22:40;19.60;99.90
42615;DHT22;28754;47.700;7.924;2023-07-28T15:26:22;19.60;99.90
42615;DHT22;28754;47.700;7.924;2023-07-28T15:29:22;19.70;99.90
42615;DHT22;28754;47.700;7.924;2023-07-28T15:40:20;19.40;99.90
42615;DHT22;28754;47.700;7.924;2023-07-28T16:01:46;19.50;99.90
42615;DHT22;28754;47.700;7.924;2023-07-28T16:04:38;19.60;99.90
42615;DHT22;28754;47.700;7.924;2023-07-28T16:07:25;19.80;99.90
42615;DHT22;28754;47.700;7.924;2023-07-28T16:10:11;19.70;99.90
42615;DHT22;28754;47.700;7.924;2023-07-28T16:12:58;19.80;99.90
42615;DHT22;28754;47.700;7.924;2023-07-28T16:15:46;19.80;99.90
42615;DHT22;28754;47.700;7.924;2023-07-28T16:18:33;19.70;99.90
42615;DHT22;28754;47.700;7.924;2023-07-28T16:21:19;19.70;99.90
42615;DHT22;28754;47.700;7.924;2023-07-28T16:24:06;19.70;99.90
42615;DHT22;28754;47.700;7.924;2023-07-28T16:26:53;19.70;99.90
42615;DHT22;28754;47.700;7.924;2023-07-28T16:29:40;19.70;99.90
42615;DHT22;28754;47.700;7.924;2023-07-28T16:32:30;19.80;99.90
42615;DHT22;28754;47.700;7.924;2023-07-28T16:35:17;19.70;99.90
42615;DHT22;28754;47.700;7.924;2023-07-28T16:38:04;19.70;99.90
42615;DHT22;28754;47.700;7.924;2023-07-28T16:40:51;19.60;99.90
42615;DHT22;28754;47.700;7.924;2023-07-28T16:43:37;19.60;99.90
42615;DHT22;28754;47.700;7.924;2023-07-28T16:46:24;19.40;99.90
42615;DHT22;28754;47.700;7.924;2023-07-28T16:49:11;19.40;99.90
42615;DHT22;28754;47.700;7.924;2023-07-28T16:51:58;19.50;99.90
42615;DHT22;28754;47.700;7.924;2023-07-28T16:54:44;19.50;99.90
42615;DHT22;28754;47.700;7.924;2023-07-28T16:57:31;19.40;99.90
42615;DHT22;28754;47.700;7.924;2023-07-28T17:00:17;19.50;99.90
42615;DHT22;28754;47.700;7.924;2023-07-28T17:03:04;19.50;99.90
42615;DHT22;28754;47.700;7.924;2023-07-28T17:05:51;19.30;99.90
42615;DHT22;28754;47.700;7.924;2023-07-28T17:08:38;19.40;99.90
42615;DHT22;28754;47.700;7.924;2023-07-28T17:11:25;19.30;99.90
42615;DHT22;28754;47.700;7.924;2023-07-28T17:14:11;19.20;99.90
42615;DHT22;28754;47.700;7.924;2023-07-28T17:16:58;19.10;99.90
42615;DHT22;28754;47.700;7.924;2023-07-28T17:19:45;19.10;99.90
42615;DHT22;28754;47.700;7.924;2023-07-28T17:22:32;19.10;99.90
42615;DHT22;28754;47.700;7.924;2023-07-28T17:25:21;19.20;99.90
42615;DHT22;28754;47.700;7.924;2023-07-28T17:28:08;19.10;99.90
42615;DHT22;28754;47.700;7.924;2023-07-28T17:30:54;19.20;99.90
42615;DHT22;28754;47.700;7.924;2023-07-28T17:33:41;19.30;99.90
42615;DHT22;28754;47.700;7.924;2023-07-28T17:36:28;19.20;99.90
42615;DHT22;28754;47.700;7.924;2023-07-28T17:39:14;19.10;99.90
42615;DHT22;28754;47.700;7.924;2023-07-28T17:42:07;19.10;99.90
42615;DHT22;28754;47.700;7.924;2023-07-28T17:58:10;18.80;99.90
42615;DHT22;28754;47.700;7.924;2023-07-28T18:01:11;18.80;99.90
42615;DHT22;28754;47.700;7.924;2023-07-28T18:04:14;18.80;99.90
42615;DHT22;28754;47.700;7.924;2023-07-28T18:07:01;18.90;99.90
42615;DHT22;28754;47.700;7.924;2023-07-28T18:09:48;19.10;99.90
42615;DHT22;28754;47.700;7.924;2023-07-28T18:12:35;19.00;99.90
42615;DHT22;28754;47.700;7.924;2023-07-28T18:15:21;18.90;99.90
42615;DHT22;28754;47.700;7.924;2023-07-28T18:18:08;18.90;99.90
42615;DHT22;28754;47.700;7.924;2023-07-28T18:20:55;18.90;99.90
42615;DHT22;28754;47.700;7.924;2023-07-28T18:27:49;18.90;99.90
42615;DHT22;28754;47.700;7.924;2023-07-28T18:31:02;18.90;99.90
42615;DHT22;28754;47.700;7.924;2023-07-28T18:34:29;18.80;99.90
42615;DHT22;28754;47.700;7.924;2023-07-28T18:38:02;18.70;99.90
42615;DHT22;28754;47.700;7.924;2023-07-28T18:41:06;18.60;99.90
42615;DHT22;28754;47.700;7.924;2023-07-28T18:43:56;18.50;99.90
42615;DHT22;28754;47.700;7.924;2023-07-28T18:47:12;18.50;99.90
42615;DHT22;28754;47.700;7.924;2023-07-28T18:50:10;18.20;99.90
42615;DHT22;28754;47.700;7.924;2023-07-28T18:52:59;18.20;99.90
42615;DHT22;28754;47.700;7.924;2023-07-28T18:55:49;18.10;99.90
42615;DHT22;28754;47.700;7.924;2023-07-28T18:58:39;18.00;99.90
42615;DHT22;28754;47.700;7.924;2023-07-28T19:01:34;18.10;99.90
42615;DHT22;28754;47.700;7.924;2023-07-28T19:04:34;18.00;99.90
42615;DHT22;28754;47.700;7.924;2023-07-28T19:07:39;17.80;99.90
42615;DHT22;28754;47.700;7.924;2023-07-28T19:10:29;17.90;99.90
42615;DHT22;28754;47.700;7.924;2023-07-28T19:13:21;17.90;99.90